sensor_id;sensor_type;location;lat;lon;timestamp;temperature;humidity
7447;DHT22;3765;47.962;7.952;2023-11-21T00:01:36;9.00;76.50
7447;DHT22;3765;47.962;7.952;2023-11-21T00:04:06;8.90;76.60
7447;DHT22;3765;47.962;7.952;2023-11-21T00:06:35;8.90;76.20
7447;DHT22;3765;47.962;7.952;2023-11-21T00:09:03;8.80;76.50
7447;DHT22;3765;47.962;7.952;2023-11-21T00:11:32;8.90;76.70
7447;DHT22;3765;47.962;7.952;2023-11-21T00:14:00;9.00;76.70
7447;DHT22;3765;47.962;7.952;2023-11-21T00:16:29;9.00;76.90
7447;DHT22;3765;47.962;7.952;2023-11-21T00:18:58;8.90;76.90
7447;DHT22;3765;47.962;7.952;2023-11-21T00:21:27;9.00;77.00
7447;DHT22;3765;47.962;7.952;2023-11-21T00:23:56;9.10;77.20
7447;DHT22;3765;47.962;7.952;2023-11-21T00:26:24;9.10;77.20
7447;DHT22;3765;47.962;7.952;2023-11-21T00:28:52;9.10;77.00
7447;DHT22;3765;47.962;7.952;2023-11-21T00:31:20;9.10;77.20
7447;DHT22;3765;47.962;7.952;2023-11-21T00:33:48;9.10;77.30
7447;DHT22;3765;47.962;7.952;2023-11-21T00:36:17;9.10;77.30
7447;DHT22;3765;47.962;7.952;2023-11-21T00:38:46;9.10;77.20
7447;DHT22;3765;47.962;7.952;2023-11-21T00:41:15;9.10;77.20
7447;DHT22;3765;47.962;7.952;2023-11-21T00:43:43;9.20;77.20
7447;DHT22;3765;47.962;7.952;2023-11-21T00:46:12;9.20;77.20
7447;DHT22;3765;47.962;7.952;2023-11-21T00:48:40;9.20;77.20
7447;DHT22;3765;47.962;7.952;2023-11-21T00:51:08;9.20;77.30
7447;DHT22;3765;47.962;7.952;2023-11-21T00:53:37;9.30;77.40
7447;DHT22;3765;47.962;7.952;2023-11-21T00:56:08;9.20;77.30
7447;DHT22;3765;47.962;7.952;2023-11-21T00:58:36;9.10;77.30
7447;DHT22;3765;47.962;7.952;2023-11-21T01:01:04;8.90;77.80
7447;DHT22;3765;47.962;7.952;2023-11-21T01:03:33;8.80;77.80
7447;DHT22;3765;47.962;7.952;2023-11-21T01:06:01;8.80;78.00
7447;DHT22;3765;47.962;7.952;2023-11-21T01:08:29;8.70;78.40
7447;DHT22;3765;47.962;7.952;2023-11-21T01:10:58;8.70;78.70
7447;DHT22;3765;47.962;7.952;2023-11-21T01:13:27;8.60;78.80
7447;DHT22;3765;47.962;7.952;2023-11-21T01:15:56;8.50;79.10
7447;DHT22;3765;47.962;7.952;2023-11-21T01:18:25;8.60;79.50
7447;DHT22;3765;47.962;7.952;2023-11-21T01:20:53;8.60;79.90
7447;DHT22;3765;47.962;7.952;2023-11-21T01:23:21;8.60;80.10
7447;DHT22;3765;47.962;7.952;2023-11-21T01:25:49;8.40;80.50
7447;DHT22;3765;47.962;7.952;2023-11-21T01:28:19;8.40;80.90
7447;DHT22;3765;47.962;7.952;2023-11-21T01:30:49;8.40;82.40
7447;DHT22;3765;47.962;7.952;2023-11-21T01:33:17;8.40;85.30
7447;DHT22;3765;47.962;7.952;2023-11-21T01:35:45;8.40;86.70
7447;DHT22;3765;47.962;7.952;2023-11-21T01:38:14;8.40;87.40
7447;DHT22;3765;47.962;7.952;2023-11-21T01:40:45;8.40;87.80
7447;DHT22;3765;47.962;7.952;2023-11-21T01:43:13;8.50;88.40
7447;DHT22;3765;47.962;7.952;2023-11-21T01:45:41;8.50;88.60
7447;DHT22;3765;47.962;7.952;2023-11-21T01:48:12;8.60;88.90
7447;DHT22;3765;47.962;7.952;2023-11-21T01:50:41;8.60;89.00
7447;DHT22;3765;47.962;7.952;2023-11-21T01:53:11;8.60;89.20
7447;DHT22;3765;47.962;7.952;2023-11-21T01:55:41;8.60;89.10
7447;DHT22;3765;47.962;7.952;2023-11-21T01:58:11;8.60;89.20
7447;DHT22;3765;47.962;7.952;2023-11-21T02:00:40;8.50;89.60
7447;DHT22;3765;47.962;7.952;2023-11-21T02:03:08;8.50;89.20
7447;DHT22;3765;47.962;7.952;2023-11-21T02:05:39;8.60;89.40
7447;DHT22;3765;47.962;7.952;2023-11-21T02:08:07;8.50;89.50
7447;DHT22;3765;47.962;7.952;2023-11-21T02:10:36;8.50;89.50
7447;DHT22;3765;47.962;7.952;2023-11-21T02:13:04;8.50;89.70
7447;DHT22;3765;47.962;7.952;2023-11-21T02:15:33;8.50;89.80
7447;DHT22;3765;47.962;7.952;2023-11-21T02:18:01;8.60;89.90
7447;DHT22;3765;47.962;7.952;2023-11-21T02:20:30;8.60;90.10
7447;DHT22;3765;47.962;7.952;2023-11-21T02:23:02;8.70;90.20
7447;DHT22;3765;47.962;7.952;2023-11-21T02:25:33;8.80;90.10
7447;DHT22;3765;47.962;7.952;2023-11-21T02:28:03;8.80;90.30
7447;DHT22;3765;47.962;7.952;2023-11-21T02:30:33;8.80;90.40
7447;DHT22;3765;47.962;7.952;2023-11-21T02:33:02;8.80;90.40
7447;DHT22;3765;47.962;7.952;2023-11-21T02:35:32;8.90;90.60
7447;DHT22;3765;47.962;7.952;2023-11-21T02:38:03;9.00;90.50
7447;DHT22;3765;47.962;7.952;2023-11-21T02:40:33;9.00;90.40
7447;DHT22;3765;47.962;7.952;2023-11-21T02:43:01;9.10;90.40
7447;DHT22;3765;47.962;7.952;2023-11-21T02:45:29;9.20;90.50
7447;DHT22;3765;47.962;7.952;2023-11-21T02:47:58;9.20;90.30
7447;DHT22;3765;47.962;7.952;2023-11-21T02:50:26;9.20;90.60
7447;DHT22;3765;47.962;7.952;2023-11-21T02:52:55;9.10;90.60
7447;DHT22;3765;47.962;7.952;2023-11-21T02:55:26;9.10;90.80
7447;DHT22;3765;47.962;7.952;2023-11-21T02:57:55;9.30;90.80
7447;DHT22;3765;47.962;7.952;2023-11-21T03:00:24;9.20;90.80
7447;DHT22;3765;47.962;7.952;2023-11-21T03:02:55;9.20;90.80
7447;DHT22;3765;47.962;7.952;2023-11-21T03:05:24;9.10;90.80
7447;DHT22;3765;47.962;7.952;2023-11-21T03:07:52;9.10;91.00
7447;DHT22;3765;47.962;7.952;2023-11-21T03:10:20;9.10;91.10
7447;DHT22;3765;47.962;7.952;2023-11-21T03:12:50;9.20;91.20
7447;DHT22;3765;47.962;7.952;2023-11-21T03:15:19;9.30;91.30
7447;DHT22;3765;47.962;7.952;2023-11-21T03:17:47;9.30;91.30
7447;DHT22;3765;47.962;7.952;2023-11-21T03:20:17;9.30;91.40
7447;DHT22;3765;47.962;7.952;2023-11-21T03:22:45;9.20;91.30
7447;DHT22;3765;47.962;7.952;2023-11-21T03:25:14;9.20;91.40
7447;DHT22;3765;47.962;7.952;2023-11-21T03:27:44;9.30;91.40
7447;DHT22;3765;47.962;7.952;2023-11-21T03:30:14;9.30;91.40
7447;DHT22;3765;47.962;7.952;2023-11-21T03:32:42;9.30;91.40
7447;DHT22;3765;47.962;7.952;2023-11-21T03:35:10;9.30;91.50
7447;DHT22;3765;47.962;7.952;2023-11-21T03:37:38;9.20;91.50
7447;DHT22;3765;47.962;7.952;2023-11-21T03:40:09;9.00;91.60
7447;DHT22;3765;47.962;7.952;2023-11-21T03:42:39;9.00;91.80
7447;DHT22;3765;47.962;7.952;2023-11-21T03:45:08;9.00;91.80
7447;DHT22;3765;47.962;7.952;2023-11-21T03:47:38;8.90;91.90
7447;DHT22;3765;47.962;7.952;2023-11-21T03:50:07;9.00;92.00
7447;DHT22;3765;47.962;7.952;2023-11-21T03:52:37;9.00;92.10
7447;DHT22;3765;47.962;7.952;2023-11-21T03:55:06;9.10;92.10
7447;DHT22;3765;47.962;7.952;2023-11-21T03:57:34;9.10;92.20
7447;DHT22;3765;47.962;7.952;2023-11-21T04:00:03;9.00;92.20
7447;DHT22;3765;47.962;7.952;2023-11-21T04:02:35;9.00;92.40
7447;DHT22;3765;47.962;7.952;2023-11-21T04:05:05;8.90;92.30
7447;DHT22;3765;47.962;7.952;2023-11-21T04:07:34;8.90;92.30
7447;DHT22;3765;47.962;7.952;2023-11-21T04:10:02;8.80;92.40
7447;DHT22;3765;47.962;7.952;2023-11-21T04:12:31;8.90;92.50
7447;DHT22;3765;47.962;7.952;2023-11-21T04:14:59;8.90;92.50
7447;DHT22;3765;47.962;7.952;2023-11-21T04:17:27;8.90;92.60
7447;DHT22;3765;47.962;7.952;2023-11-21T04:19:55;9.00;92.50
7447;DHT22;3765;47.962;7.952;2023-11-21T04:22:25;9.10;92.60
7447;DHT22;3765;47.962;7.952;2023-11-21T04:24:53;9.10;92.50
7447;DHT22;3765;47.962;7.952;2023-11-21T04:27:22;9.00;92.50
7447;DHT22;3765;47.962;7.952;2023-11-21T04:29:50;8.90;92.50
7447;DHT22;3765;47.962;7.952;2023-11-21T04:32:21;8.80;92.60
7447;DHT22;3765;47.962;7.952;2023-11-21T04:34:49;8.90;92.70
7447;DHT22;3765;47.962;7.952;2023-11-21T04:37:18;8.80;92.70
7447;DHT22;3765;47.962;7.952;2023-11-21T04:39:47;8.90;92.80
7447;DHT22;3765;47.962;7.952;2023-11-21T04:42:16;8.90;92.70
7447;DHT22;3765;47.962;7.952;2023-11-21T04:44:44;8.90;92.80
7447;DHT22;3765;47.962;7.952;2023-11-21T04:47:12;8.90;92.80
7447;DHT22;3765;47.962;7.952;2023-11-21T04:49:42;8.90;92.80
7447;DHT22;3765;47.962;7.952;2023-11-21T04:52:10;9.00;92.90
7447;DHT22;3765;47.962;7.952;2023-11-21T04:54:38;9.00;92.90
7447;DHT22;3765;47.962;7.952;2023-11-21T04:57:08;9.00;92.80
7447;DHT22;3765;47.962;7.952;2023-11-21T04:59:37;9.00;92.80
7447;DHT22;3765;47.962;7.952;2023-11-21T05:02:07;9.10;92.90
7447;DHT22;3765;47.962;7.952;2023-11-21T05:04:46;9.00;92.80
7447;DHT22;3765;47.962;7.952;2023-11-21T05:07:14;9.00;92.80
7447;DHT22;3765;47.962;7.952;2023-11-21T05:09:43;9.00;92.80
7447;DHT22;3765;47.962;7.952;2023-11-21T05:12:14;9.00;92.90
7447;DHT22;3765;47.962;7.952;2023-11-21T05:14:42;9.00;93.10
7447;DHT22;3765;47.962;7.952;2023-11-21T05:17:10;9.00;93.10
7447;DHT22;3765;47.962;7.952;2023-11-21T05:19:38;8.90;93.20
7447;DHT22;3765;47.962;7.952;2023-11-21T05:22:07;9.00;93.30
7447;DHT22;3765;47.962;7.952;2023-11-21T05:24:36;9.00;93.30
7447;DHT22;3765;47.962;7.952;2023-11-21T05:27:05;9.10;93.40
7447;DHT22;3765;47.962;7.952;2023-11-21T05:29:35;9.10;93.40
7447;DHT22;3765;47.962;7.952;2023-11-21T05:32:05;9.10;93.40
7447;DHT22;3765;47.962;7.952;2023-11-21T05:34:33;8.90;93.40
7447;DHT22;3765;47.962;7.952;2023-11-21T05:37:01;9.00;93.50
7447;DHT22;3765;47.962;7.952;2023-11-21T05:39:29;9.00;93.50
7447;DHT22;3765;47.962;7.952;2023-11-21T05:41:58;8.90;93.50
7447;DHT22;3765;47.962;7.952;2023-11-21T05:44:27;8.90;93.60
7447;DHT22;3765;47.962;7.952;2023-11-21T05:46:56;9.00;93.50
7447;DHT22;3765;47.962;7.952;2023-11-21T05:49:25;8.90;93.60
7447;DHT22;3765;47.962;7.952;2023-11-21T05:51:54;9.00;93.60
7447;DHT22;3765;47.962;7.952;2023-11-21T05:54:22;9.00;93.70
7447;DHT22;3765;47.962;7.952;2023-11-21T05:56:50;9.10;93.70
7447;DHT22;3765;47.962;7.952;2023-11-21T05:59:19;9.10;93.60
7447;DHT22;3765;47.962;7.952;2023-11-21T06:01:49;9.10;93.60
7447;DHT22;3765;47.962;7.952;2023-11-21T06:04:19;9.20;93.80
7447;DHT22;3765;47.962;7.952;2023-11-21T06:06:51;9.30;93.90
7447;DHT22;3765;47.962;7.952;2023-11-21T06:09:21;9.10;93.80
7447;DHT22;3765;47.962;7.952;2023-11-21T06:11:49;9.10;94.00
7447;DHT22;3765;47.962;7.952;2023-11-21T06:14:17;9.10;94.30
7447;DHT22;3765;47.962;7.952;2023-11-21T06:16:45;9.10;94.60
7447;DHT22;3765;47.962;7.952;2023-11-21T06:19:14;9.10;94.70
7447;DHT22;3765;47.962;7.952;2023-11-21T06:21:46;9.00;94.90
7447;DHT22;3765;47.962;7.952;2023-11-21T06:24:14;8.90;95.00
7447;DHT22;3765;47.962;7.952;2023-11-21T06:26:43;9.00;95.20
7447;DHT22;3765;47.962;7.952;2023-11-21T06:29:12;8.90;95.20
7447;DHT22;3765;47.962;7.952;2023-11-21T06:31:40;8.90;95.20
7447;DHT22;3765;47.962;7.952;2023-11-21T06:34:08;8.80;95.30
7447;DHT22;3765;47.962;7.952;2023-11-21T06:36:37;8.80;95.40
7447;DHT22;3765;47.962;7.952;2023-11-21T06:39:06;8.90;95.50
7447;DHT22;3765;47.962;7.952;2023-11-21T06:41:35;8.90;95.50
7447;DHT22;3765;47.962;7.952;2023-11-21T06:44:05;8.90;95.50
7447;DHT22;3765;47.962;7.952;2023-11-21T06:46:37;8.80;95.60
7447;DHT22;3765;47.962;7.952;2023-11-21T06:49:09;8.90;95.60
7447;DHT22;3765;47.962;7.952;2023-11-21T06:51:38;8.90;95.60
7447;DHT22;3765;47.962;7.952;2023-11-21T06:54:07;8.90;95.70
7447;DHT22;3765;47.962;7.952;2023-11-21T06:56:35;9.00;95.70
7447;DHT22;3765;47.962;7.952;2023-11-21T06:59:05;9.10;95.70
7447;DHT22;3765;47.962;7.952;2023-11-21T07:01:33;9.10;95.80
7447;DHT22;3765;47.962;7.952;2023-11-21T07:04:06;9.10;95.80
7447;DHT22;3765;47.962;7.952;2023-11-21T07:06:34;9.10;95.80
7447;DHT22;3765;47.962;7.952;2023-11-21T07:09:03;9.00;95.80
7447;DHT22;3765;47.962;7.952;2023-11-21T07:11:33;9.00;95.80
7447;DHT22;3765;47.962;7.952;2023-11-21T07:14:01;8.90;95.90
7447;DHT22;3765;47.962;7.952;2023-11-21T07:16:34;8.90;95.90
7447;DHT22;3765;47.962;7.952;2023-11-21T07:19:04;9.00;95.90
7447;DHT22;3765;47.962;7.952;2023-11-21T07:21:33;9.00;95.90
7447;DHT22;3765;47.962;7.952;2023-11-21T07:24:02;8.90;95.90
7447;DHT22;3765;47.962;7.952;2023-11-21T07:26:30;8.90;95.90
7447;DHT22;3765;47.962;7.952;2023-11-21T07:29:00;8.90;95.90
7447;DHT22;3765;47.962;7.952;2023-11-21T07:31:29;8.90;96.00
7447;DHT22;3765;47.962;7.952;2023-11-21T07:34:01;8.90;96.00
7447;DHT22;3765;47.962;7.952;2023-11-21T07:36:29;8.90;96.00
7447;DHT22;3765;47.962;7.952;2023-11-21T07:38:57;9.00;96.00
7447;DHT22;3765;47.962;7.952;2023-11-21T07:41:25;9.10;96.00
7447;DHT22;3765;47.962;7.952;2023-11-21T07:43:59;9.20;96.00
7447;DHT22;3765;47.962;7.952;2023-11-21T07:46:27;9.20;96.00
7447;DHT22;3765;47.962;7.952;2023-11-21T07:48:56;9.20;96.00
7447;DHT22;3765;47.962;7.952;2023-11-21T07:51:24;9.30;96.00
7447;DHT22;3765;47.962;7.952;2023-11-21T07:53:52;9.30;96.10
7447;DHT22;3765;47.962;7.952;2023-11-21T07:56:20;9.30;96.10
7447;DHT22;3765;47.962;7.952;2023-11-21T07:58:49;9.30;96.10
7447;DHT22;3765;47.962;7.952;2023-11-21T08:01:21;9.30;96.10
7447;DHT22;3765;47.962;7.952;2023-11-21T08:03:49;9.30;96.10
7447;DHT22;3765;47.962;7.952;2023-11-21T08:06:19;9.30;96.10
7447;DHT22;3765;47.962;7.952;2023-11-21T08:08:47;9.30;96.10
7447;DHT22;3765;47.962;7.952;2023-11-21T08:11:15;9.30;96.10
7447;DHT22;3765;47.962;7.952;2023-11-21T08:13:46;9.40;96.10
7447;DHT22;3765;47.962;7.952;2023-11-21T08:16:14;9.40;96.10
7447;DHT22;3765;47.962;7.952;2023-11-21T08:18:45;9.40;96.10
7447;DHT22;3765;47.962;7.952;2023-11-21T08:21:13;9.50;96.10
7447;DHT22;3765;47.962;7.952;2023-11-21T08:23:41;9.40;96.10
7447;DHT22;3765;47.962;7.952;2023-11-21T08:26:09;9.50;96.10
7447;DHT22;3765;47.962;7.952;2023-11-21T08:28:37;9.50;96.10
7447;DHT22;3765;47.962;7.952;2023-11-21T08:31:06;9.60;96.20
7447;DHT22;3765;47.962;7.952;2023-11-21T08:33:34;9.60;96.20
7447;DHT22;3765;47.962;7.952;2023-11-21T08:36:07;9.70;96.20
7447;DHT22;3765;47.962;7.952;2023-11-21T08:38:36;9.70;96.20
7447;DHT22;3765;47.962;7.952;2023-11-21T08:41:06;9.70;96.20
7447;DHT22;3765;47.962;7.952;2023-11-21T08:43:35;9.60;96.20
7447;DHT22;3765;47.962;7.952;2023-11-21T08:46:06;9.60;96.20
7447;DHT22;3765;47.962;7.952;2023-11-21T08:48:36;9.60;96.20
7447;DHT22;3765;47.962;7.952;2023-11-21T08:51:05;9.60;96.20
7447;DHT22;3765;47.962;7.952;2023-11-21T08:53:34;9.60;96.20
7447;DHT22;3765;47.962;7.952;2023-11-21T08:56:03;9.60;96.20
7447;DHT22;3765;47.962;7.952;2023-11-21T08:58:31;9.70;96.20
7447;DHT22;3765;47.962;7.952;2023-11-21T09:01:00;9.80;96.30
7447;DHT22;3765;47.962;7.952;2023-11-21T09:03:28;9.80;96.20
7447;DHT22;3765;47.962;7.952;2023-11-21T09:05:56;9.90;96.20
7447;DHT22;3765;47.962;7.952;2023-11-21T09:08:25;9.90;96.20
7447;DHT22;3765;47.962;7.952;2023-11-21T09:10:56;9.90;96.20
7447;DHT22;3765;47.962;7.952;2023-11-21T09:13:24;10.00;96.20
7447;DHT22;3765;47.962;7.952;2023-11-21T09:15:53;10.00;96.30
7447;DHT22;3765;47.962;7.952;2023-11-21T09:18:21;9.90;96.20
7447;DHT22;3765;47.962;7.952;2023-11-21T09:20:50;9.80;96.20
7447;DHT22;3765;47.962;7.952;2023-11-21T09:23:18;9.60;96.20
7447;DHT22;3765;47.962;7.952;2023-11-21T09:25:46;9.70;96.20
7447;DHT22;3765;47.962;7.952;2023-11-21T09:28:18;9.80;96.30
7447;DHT22;3765;47.962;7.952;2023-11-21T09:30:46;9.80;96.30
7447;DHT22;3765;47.962;7.952;2023-11-21T09:33:16;9.90;96.30
7447;DHT22;3765;47.962;7.952;2023-11-21T09:35:44;10.00;96.30
7447;DHT22;3765;47.962;7.952;2023-11-21T09:38:12;10.10;96.30
7447;DHT22;3765;47.962;7.952;2023-11-21T09:40:41;10.10;96.30
7447;DHT22;3765;47.962;7.952;2023-11-21T09:43:15;10.00;96.20
7447;DHT22;3765;47.962;7.952;2023-11-21T09:45:47;10.00;96.30
7447;DHT22;3765;47.962;7.952;2023-11-21T09:48:17;9.90;96.20
7447;DHT22;3765;47.962;7.952;2023-11-21T09:50:47;10.00;96.30
7447;DHT22;3765;47.962;7.952;2023-11-21T09:53:20;10.10;96.30
7447;DHT22;3765;47.962;7.952;2023-11-21T09:55:51;10.10;96.30
7447;DHT22;3765;47.962;7.952;2023-11-21T09:58:20;10.10;96.30
7447;DHT22;3765;47.962;7.952;2023-11-21T10:00:54;10.00;96.30
7447;DHT22;3765;47.962;7.952;2023-11-21T10:03:23;10.10;96.30
7447;DHT22;3765;47.962;7.952;2023-11-21T10:05:53;10.00;96.30
7447;DHT22;3765;47.962;7.952;2023-11-21T10:08:27;10.10;96.30
7447;DHT22;3765;47.962;7.952;2023-11-21T10:11:14;10.00;96.30
7447;DHT22;3765;47.962;7.952;2023-11-21T10:13:44;10.10;96.30
7447;DHT22;3765;47.962;7.952;2023-11-21T10:16:19;9.90;96.30
7447;DHT22;3765;47.962;7.952;2023-11-21T10:18:52;9.90;96.30
7447;DHT22;3765;47.962;7.952;2023-11-21T10:21:29;9.80;96.30
7447;DHT22;3765;47.962;7.952;2023-11-21T10:23:57;9.80;96.20
7447;DHT22;3765;47.962;7.952;2023-11-21T10:26:26;9.80;96.30
7447;DHT22;3765;47.962;7.952;2023-11-21T10:28:57;9.90;96.30
7447;DHT22;3765;47.962;7.952;2023-11-21T10:31:28;9.80;96.30
7447;DHT22;3765;47.962;7.952;2023-11-21T10:34:13;9.80;96.30
7447;DHT22;3765;47.962;7.952;2023-11-21T10:36:42;9.80;96.30
7447;DHT22;3765;47.962;7.952;2023-11-21T10:39:14;9.70;96.30
7447;DHT22;3765;47.962;7.952;2023-11-21T10:41:46;9.60;96.30
7447;DHT22;3765;47.962;7.952;2023-11-21T10:44:15;9.40;96.30
7447;DHT22;3765;47.962;7.952;2023-11-21T10:46:51;9.50;96.30
7447;DHT22;3765;47.962;7.952;2023-11-21T10:49:23;9.60;96.30
7447;DHT22;3765;47.962;7.952;2023-11-21T10:51:53;9.60;96.30
7447;DHT22;3765;47.962;7.952;2023-11-21T10:54:23;9.60;96.30
7447;DHT22;3765;47.962;7.952;2023-11-21T10:56:56;9.60;96.30
7447;DHT22;3765;47.962;7.952;2023-11-21T10:59:29;9.70;96.30
7447;DHT22;3765;47.962;7.952;2023-11-21T11:02:02;9.70;96.30
7447;DHT22;3765;47.962;7.952;2023-11-21T11:04:34;9.60;96.30
7447;DHT22;3765;47.962;7.952;2023-11-21T11:07:06;9.50;96.30
7447;DHT22;3765;47.962;7.952;2023-11-21T11:09:39;9.40;96.30
7447;DHT22;3765;47.962;7.952;2023-11-21T11:12:08;9.30;96.30
7447;DHT22;3765;47.962;7.952;2023-11-21T11:14:40;9.30;96.30
7447;DHT22;3765;47.962;7.952;2023-11-21T11:17:13;9.40;96.30
7447;DHT22;3765;47.962;7.952;2023-11-21T11:19:42;9.60;96.30
7447;DHT22;3765;47.962;7.952;2023-11-21T11:22:20;9.80;96.40
7447;DHT22;3765;47.962;7.952;2023-11-21T11:25:06;9.90;96.40
7447;DHT22;3765;47.962;7.952;2023-11-21T11:27:47;10.00;96.40
7447;DHT22;3765;47.962;7.952;2023-11-21T11:30:26;10.00;96.40
7447;DHT22;3765;47.962;7.952;2023-11-21T11:33:09;10.00;96.40
7447;DHT22;3765;47.962;7.952;2023-11-21T11:35:50;9.90;96.40
7447;DHT22;3765;47.962;7.952;2023-11-21T11:38:21;9.90;96.40
7447;DHT22;3765;47.962;7.952;2023-11-21T11:40:53;9.90;96.40
7447;DHT22;3765;47.962;7.952;2023-11-21T11:43:27;9.80;96.40
7447;DHT22;3765;47.962;7.952;2023-11-21T11:45:56;9.80;96.40
7447;DHT22;3765;47.962;7.952;2023-11-21T11:48:27;9.80;96.40
7447;DHT22;3765;47.962;7.952;2023-11-21T11:51:02;9.60;96.40
7447;DHT22;3765;47.962;7.952;2023-11-21T11:53:38;9.70;96.40
7447;DHT22;3765;47.962;7.952;2023-11-21T11:56:28;9.80;96.40
7447;DHT22;3765;47.962;7.952;2023-11-21T11:58:59;9.70;96.40
7447;DHT22;3765;47.962;7.952;2023-11-21T12:01:30;9.70;96.40
7447;DHT22;3765;47.962;7.952;2023-11-21T12:04:26;9.70;96.40
7447;DHT22;3765;47.962;7.952;2023-11-21T12:07:02;9.80;96.40
7447;DHT22;3765;47.962;7.952;2023-11-21T12:09:31;9.80;96.40
7447;DHT22;3765;47.962;7.952;2023-11-21T12:12:00;9.90;96.40
7447;DHT22;3765;47.962;7.952;2023-11-21T12:14:30;9.90;96.40
7447;DHT22;3765;47.962;7.952;2023-11-21T12:16:59;9.80;96.40
7447;DHT22;3765;47.962;7.952;2023-11-21T12:19:30;9.80;96.40
7447;DHT22;3765;47.962;7.952;2023-11-21T12:21:59;10.00;96.50
7447;DHT22;3765;47.962;7.952;2023-11-21T12:24:28;10.00;96.40
7447;DHT22;3765;47.962;7.952;2023-11-21T12:26:56;10.10;96.40
7447;DHT22;3765;47.962;7.952;2023-11-21T12:29:24;10.10;96.40
7447;DHT22;3765;47.962;7.952;2023-11-21T12:31:52;10.10;96.50
7447;DHT22;3765;47.962;7.952;2023-11-21T12:34:20;10.10;96.40
7447;DHT22;3765;47.962;7.952;2023-11-21T12:36:52;10.10;96.50
7447;DHT22;3765;47.962;7.952;2023-11-21T12:39:22;10.00;96.50
7447;DHT22;3765;47.962;7.952;2023-11-21T12:41:50;9.80;96.40
7447;DHT22;3765;47.962;7.952;2023-11-21T12:44:19;9.90;96.40
7447;DHT22;3765;47.962;7.952;2023-11-21T12:46:49;9.90;96.40
7447;DHT22;3765;47.962;7.952;2023-11-21T12:49:19;9.90;96.40
7447;DHT22;3765;47.962;7.952;2023-11-21T12:51:49;9.90;96.40
7447;DHT22;3765;47.962;7.952;2023-11-21T12:54:18;10.00;96.50
7447;DHT22;3765;47.962;7.952;2023-11-21T12:56:46;10.20;96.50
7447;DHT22;3765;47.962;7.952;2023-11-21T12:59:16;10.20;96.50
7447;DHT22;3765;47.962;7.952;2023-11-21T13:01:45;10.30;96.50
7447;DHT22;3765;47.962;7.952;2023-11-21T13:04:16;10.30;96.50
7447;DHT22;3765;47.962;7.952;2023-11-21T13:06:45;10.40;96.50
7447;DHT22;3765;47.962;7.952;2023-11-21T13:09:13;10.50;96.50
7447;DHT22;3765;47.962;7.952;2023-11-21T13:11:59;10.40;96.50
7447;DHT22;3765;47.962;7.952;2023-11-21T13:14:30;10.50;96.50
7447;DHT22;3765;47.962;7.952;2023-11-21T13:16:59;10.50;96.50
7447;DHT22;3765;47.962;7.952;2023-11-21T13:19:27;10.60;96.50
7447;DHT22;3765;47.962;7.952;2023-11-21T13:21:55;10.60;96.50
7447;DHT22;3765;47.962;7.952;2023-11-21T13:24:25;10.60;96.50
7447;DHT22;3765;47.962;7.952;2023-11-21T13:26:55;10.50;96.50
7447;DHT22;3765;47.962;7.952;2023-11-21T13:29:24;10.30;96.50
7447;DHT22;3765;47.962;7.952;2023-11-21T13:31:53;10.30;96.50
7447;DHT22;3765;47.962;7.952;2023-11-21T13:34:22;10.20;96.50
7447;DHT22;3765;47.962;7.952;2023-11-21T13:36:54;10.30;96.50
7447;DHT22;3765;47.962;7.952;2023-11-21T13:39:27;10.30;96.50
7447;DHT22;3765;47.962;7.952;2023-11-21T13:41:57;10.20;96.50
7447;DHT22;3765;47.962;7.952;2023-11-21T13:44:25;10.30;96.50
7447;DHT22;3765;47.962;7.952;2023-11-21T13:47:01;10.30;96.50
7447;DHT22;3765;47.962;7.952;2023-11-21T13:49:29;10.30;96.50
7447;DHT22;3765;47.962;7.952;2023-11-21T13:52:02;10.30;96.50
7447;DHT22;3765;47.962;7.952;2023-11-21T13:54:31;10.30;96.50
7447;DHT22;3765;47.962;7.952;2023-11-21T13:57:01;10.30;96.50
7447;DHT22;3765;47.962;7.952;2023-11-21T13:59:30;10.30;96.50
7447;DHT22;3765;47.962;7.952;2023-11-21T14:01:58;10.30;96.50
7447;DHT22;3765;47.962;7.952;2023-11-21T14:04:40;10.30;96.50
7447;DHT22;3765;47.962;7.952;2023-11-21T14:07:22;10.30;96.50
7447;DHT22;3765;47.962;7.952;2023-11-21T14:10:00;10.30;96.50
7447;DHT22;3765;47.962;7.952;2023-11-21T14:12:29;10.30;96.50
7447;DHT22;3765;47.962;7.952;2023-11-21T14:15:05;10.30;96.50
7447;DHT22;3765;47.962;7.952;2023-11-21T14:17:37;10.40;96.50
7447;DHT22;3765;47.962;7.952;2023-11-21T14:20:09;10.40;96.50
7447;DHT22;3765;47.962;7.952;2023-11-21T14:22:44;10.40;96.50
7447;DHT22;3765;47.962;7.952;2023-11-21T14:25:12;10.50;96.60
7447;DHT22;3765;47.962;7.952;2023-11-21T14:27:42;10.50;96.60
7447;DHT22;3765;47.962;7.952;2023-11-21T14:30:11;10.50;96.50
7447;DHT22;3765;47.962;7.952;2023-11-21T14:32:40;10.40;96.50
7447;DHT22;3765;47.962;7.952;2023-11-21T14:35:09;10.40;96.50
7447;DHT22;3765;47.962;7.952;2023-11-21T14:37:37;10.40;96.50
7447;DHT22;3765;47.962;7.952;2023-11-21T14:40:07;10.40;96.60
7447;DHT22;3765;47.962;7.952;2023-11-21T14:42:35;10.40;96.50
7447;DHT22;3765;47.962;7.952;2023-11-21T14:45:10;10.40;96.60
7447;DHT22;3765;47.962;7.952;2023-11-21T14:47:39;10.40;96.60
7447;DHT22;3765;47.962;7.952;2023-11-21T14:50:13;10.30;96.60
7447;DHT22;3765;47.962;7.952;2023-11-21T14:52:59;10.30;96.50
7447;DHT22;3765;47.962;7.952;2023-11-21T14:55:32;10.10;96.50
7447;DHT22;3765;47.962;7.952;2023-11-21T14:58:08;10.20;96.60
7447;DHT22;3765;47.962;7.952;2023-11-21T15:00:41;10.20;96.60
7447;DHT22;3765;47.962;7.952;2023-11-21T15:03:12;10.20;96.60
7447;DHT22;3765;47.962;7.952;2023-11-21T15:06:02;10.20;96.60
7447;DHT22;3765;47.962;7.952;2023-11-21T15:08:49;10.20;96.60
7447;DHT22;3765;47.962;7.952;2023-11-21T15:11:26;10.20;96.60
7447;DHT22;3765;47.962;7.952;2023-11-21T15:13:58;10.10;96.60
7447;DHT22;3765;47.962;7.952;2023-11-21T15:16:28;10.10;96.60
7447;DHT22;3765;47.962;7.952;2023-11-21T15:18:57;10.10;96.60
7447;DHT22;3765;47.962;7.952;2023-11-21T15:21:27;10.10;96.60
7447;DHT22;3765;47.962;7.952;2023-11-21T15:23:55;10.10;96.60
7447;DHT22;3765;47.962;7.952;2023-11-21T15:26:23;10.10;96.60
7447;DHT22;3765;47.962;7.952;2023-11-21T15:28:56;10.10;96.60
7447;DHT22;3765;47.962;7.952;2023-11-21T15:31:24;10.10;96.60
7447;DHT22;3765;47.962;7.952;2023-11-21T15:33:54;10.10;96.60
7447;DHT22;3765;47.962;7.952;2023-11-21T15:36:26;10.10;96.60
7447;DHT22;3765;47.962;7.952;2023-11-21T15:38:55;10.00;96.60
7447;DHT22;3765;47.962;7.952;2023-11-21T15:41:23;10.00;96.60
7447;DHT22;3765;47.962;7.952;2023-11-21T15:43:51;10.00;96.60
7447;DHT22;3765;47.962;7.952;2023-11-21T15:46:20;10.00;96.60
7447;DHT22;3765;47.962;7.952;2023-11-21T15:48:48;9.90;96.60
7447;DHT22;3765;47.962;7.952;2023-11-21T15:53:50;10.00;96.60
7447;DHT22;3765;47.962;7.952;2023-11-21T15:56:19;9.90;96.60
7447;DHT22;3765;47.962;7.952;2023-11-21T15:58:47;9.90;96.60
7447;DHT22;3765;47.962;7.952;2023-11-21T16:01:17;9.90;96.60
7447;DHT22;3765;47.962;7.952;2023-11-21T16:06:15;9.80;96.60
7447;DHT22;3765;47.962;7.952;2023-11-21T16:11:14;9.90;96.60
7447;DHT22;3765;47.962;7.952;2023-11-21T16:18:44;9.90;96.60
7447;DHT22;3765;47.962;7.952;2023-11-21T16:21:12;9.80;96.70
7447;DHT22;3765;47.962;7.952;2023-11-21T16:23:42;9.80;96.60
7447;DHT22;3765;47.962;7.952;2023-11-21T16:26:12;9.80;96.60
7447;DHT22;3765;47.962;7.952;2023-11-21T16:28:40;9.70;96.60
7447;DHT22;3765;47.962;7.952;2023-11-21T16:31:09;9.80;96.70
7447;DHT22;3765;47.962;7.952;2023-11-21T16:33:41;9.70;96.60
7447;DHT22;3765;47.962;7.952;2023-11-21T16:36:16;9.50;96.60
7447;DHT22;3765;47.962;7.952;2023-11-21T16:41:20;9.70;96.70
7447;DHT22;3765;47.962;7.952;2023-11-21T16:46:27;9.80;96.70
7447;DHT22;3765;47.962;7.952;2023-11-21T16:48:59;9.80;96.70
7447;DHT22;3765;47.962;7.952;2023-11-21T16:51:27;9.80;96.70